Portada
METAR-TAF:

METAR-TAF

Aeroports :

Cranfield, Anglaterra

latitud: 52-04N, longitud: 000-37W, altitud: 111 m

Observació

L'informe es va fer fa 28 minuts, a les 08:50 UTC
Vent 13 kt del Sud-Oest
Temperatura 17°C
Humitat 82%
Pressió 1024 hPa
Visibilitat 10 km o més
Escasses núvols a una alçada de 1600 ft

METAR: EGTC 220850Z 22013KT 9999 FEW016 17/14 Q1024

Hora: 10:18 (09:18 UTC)

Pronòstic

L'informe es va fer fa 1 hora i 18 minuts, a les 08:00 UTC
Pronòstic vàlid del 22 a les 09 UTC al 22 a les 18 UTC
Vent 12 kt del Sud-Oest
Visibilitat 10 km o més
Escasses núvols a una alçada de 4000 ft

TAF: EGTC 220800Z 2209/2218 22012KT 9999 FEW040

Observacions i pronòstics meteorològics de més de 4000 aeroports (METAR i TAF).

Les estacions disponibles són els punts grocs i vermells al mapa.

Posi el ratolí al punt desitjat per veure el nom de l'estació.

Feu clic per veure les observacions i els pronòstics meteorològics.

Per canviar el mapa: feu clic els botons verds amb una creu de color negre per apropar; al botó verd amb un guió per allunyar la imatge; o en les fletxes verdes per a mapes adjacents.


METAR-TAF: